sensor_id;sensor_type;location;lat;lon;timestamp;pressure;altitude;pressure_sealevel;temperature;humidity
37170;BME280;23062;13.952;100.608;2023-04-19T00:00:07;1007.80;;;32.66;66.48
37170;BME280;23062;13.952;100.608;2023-04-19T00:04:33;1007.78;;;32.64;66.46
37170;BME280;23062;13.952;100.608;2023-04-19T00:09:00;1007.85;;;32.62;66.71
37170;BME280;23062;13.952;100.608;2023-04-19T00:13:30;1007.89;;;32.63;66.63
37170;BME280;23062;13.952;100.608;2023-04-19T00:17:58;1007.93;;;32.62;66.80
37170;BME280;23062;13.952;100.608;2023-04-19T00:22:26;1008.06;;;32.66;66.72
37170;BME280;23062;13.952;100.608;2023-04-19T00:26:55;1008.16;;;32.66;66.60
37170;BME280;23062;13.952;100.608;2023-04-19T00:31:28;1008.23;;;32.66;66.61
37170;BME280;23062;13.952;100.608;2023-04-19T00:36:01;1008.31;;;32.66;66.63
37170;BME280;23062;13.952;100.608;2023-04-19T00:40:32;1008.40;;;32.67;66.63
37170;BME280;23062;13.952;100.608;2023-04-19T00:50:34;1008.58;;;32.68;66.58
37170;BME280;23062;13.952;100.608;2023-04-19T02:30:08;1009.01;;;33.01;60.20
37170;BME280;23062;13.952;100.608;2023-04-19T02:34:31;1008.96;;;33.04;60.12
37170;BME280;23062;13.952;100.608;2023-04-19T02:38:59;1009.04;;;33.08;60.28
37170;BME280;23062;13.952;100.608;2023-04-19T02:48:08;1008.98;;;33.13;59.64
37170;BME280;23062;13.952;100.608;2023-04-19T02:52:42;1008.95;;;33.14;59.53
37170;BME280;23062;13.952;100.608;2023-04-19T02:57:11;1008.86;;;33.19;59.30
37170;BME280;23062;13.952;100.608;2023-04-19T03:01:43;1008.87;;;33.22;59.11
37170;BME280;23062;13.952;100.608;2023-04-19T03:06:11;1008.77;;;33.22;58.39
37170;BME280;23062;13.952;100.608;2023-04-19T03:10:38;1008.79;;;33.26;58.46
37170;BME280;23062;13.952;100.608;2023-04-19T03:19:41;1008.68;;;33.27;58.25
37170;BME280;23062;13.952;100.608;2023-04-19T03:24:08;1008.71;;;33.30;57.82
37170;BME280;23062;13.952;100.608;2023-04-19T03:28:34;1008.66;;;33.32;57.89
37170;BME280;23062;13.952;100.608;2023-04-19T03:33:02;1008.56;;;33.31;57.77
37170;BME280;23062;13.952;100.608;2023-04-19T03:37:32;1008.50;;;33.33;58.01
37170;BME280;23062;13.952;100.608;2023-04-19T03:41:57;1008.47;;;33.35;57.93
37170;BME280;23062;13.952;100.608;2023-04-19T03:46:27;1008.40;;;33.38;57.69
37170;BME280;23062;13.952;100.608;2023-04-19T03:51:02;1008.41;;;33.40;57.78
37170;BME280;23062;13.952;100.608;2023-04-19T03:55:28;1008.30;;;33.45;57.18
37170;BME280;23062;13.952;100.608;2023-04-19T03:59:55;1008.28;;;33.46;57.11
37170;BME280;23062;13.952;100.608;2023-04-19T04:04:26;1008.18;;;33.47;57.02
37170;BME280;23062;13.952;100.608;2023-04-19T04:08:52;1008.10;;;33.50;56.69
37170;BME280;23062;13.952;100.608;2023-04-19T04:13:28;1008.07;;;33.55;56.35
37170;BME280;23062;13.952;100.608;2023-04-19T04:17:47;1008.00;;;33.53;56.19
37170;BME280;23062;13.952;100.608;2023-04-19T04:22:20;1007.96;;;33.56;55.08
37170;BME280;23062;13.952;100.608;2023-04-19T04:26:49;1007.88;;;33.58;54.71
37170;BME280;23062;13.952;100.608;2023-04-19T04:31:23;1007.77;;;33.61;54.30
37170;BME280;23062;13.952;100.608;2023-04-19T04:35:49;1007.72;;;33.64;54.00
37170;BME280;23062;13.952;100.608;2023-04-19T04:40:14;1007.62;;;33.73;53.11
37170;BME280;23062;13.952;100.608;2023-04-19T04:44:40;1007.52;;;33.68;53.50
37170;BME280;23062;13.952;100.608;2023-04-19T04:49:11;1007.49;;;33.73;53.63
37170;BME280;23062;13.952;100.608;2023-04-19T04:53:42;1007.40;;;33.75;53.39
37170;BME280;23062;13.952;100.608;2023-04-19T04:58:08;1007.31;;;33.78;53.22
37170;BME280;23062;13.952;100.608;2023-04-19T05:02:34;1007.24;;;33.80;53.01
37170;BME280;23062;13.952;100.608;2023-04-19T05:07:01;1007.17;;;33.82;52.91
37170;BME280;23062;13.952;100.608;2023-04-19T05:11:27;1007.03;;;33.80;53.18
37170;BME280;23062;13.952;100.608;2023-04-19T05:15:53;1006.91;;;33.84;52.61
37170;BME280;23062;13.952;100.608;2023-04-19T05:20:18;1006.82;;;33.89;52.41
37170;BME280;23062;13.952;100.608;2023-04-19T05:24:44;1006.68;;;33.91;52.44
37170;BME280;23062;13.952;100.608;2023-04-19T05:29:17;1006.57;;;33.88;52.55
37170;BME280;23062;13.952;100.608;2023-04-19T05:33:43;1006.44;;;33.90;52.64
37170;BME280;23062;13.952;100.608;2023-04-19T05:38:09;1006.36;;;33.95;52.18
37170;BME280;23062;13.952;100.608;2023-04-19T05:42:36;1006.29;;;33.99;52.07
37170;BME280;23062;13.952;100.608;2023-04-19T05:47:03;1006.15;;;33.99;52.34
37170;BME280;23062;13.952;100.608;2023-04-19T05:51:29;1006.07;;;33.99;52.50
37170;BME280;23062;13.952;100.608;2023-04-19T05:55:55;1005.97;;;34.00;52.47
37170;BME280;23062;13.952;100.608;2023-04-19T06:00:21;1005.92;;;34.04;52.26
37170;BME280;23062;13.952;100.608;2023-04-19T06:05:00;1005.80;;;34.03;52.12
37170;BME280;23062;13.952;100.608;2023-04-19T06:09:32;1005.61;;;34.06;51.74
37170;BME280;23062;13.952;100.608;2023-04-19T06:18:44;1005.35;;;34.18;51.29
37170;BME280;23062;13.952;100.608;2023-04-19T06:49:10;1004.37;;;34.20;51.10
37170;BME280;23062;13.952;100.608;2023-04-19T06:53:42;1004.28;;;34.25;51.06
37170;BME280;23062;13.952;100.608;2023-04-19T07:07:20;1003.98;;;34.30;50.32
37170;BME280;23062;13.952;100.608;2023-04-19T07:11:49;1003.87;;;34.38;50.21
37170;BME280;23062;13.952;100.608;2023-04-19T07:16:17;1003.79;;;34.38;50.37
37170;BME280;23062;13.952;100.608;2023-04-19T07:20:44;1003.61;;;34.37;50.23
37170;BME280;23062;13.952;100.608;2023-04-19T07:25:11;1003.55;;;34.41;49.80
37170;BME280;23062;13.952;100.608;2023-04-19T07:29:37;1003.45;;;34.38;49.82
37170;BME280;23062;13.952;100.608;2023-04-19T07:34:04;1003.39;;;34.37;49.44
37170;BME280;23062;13.952;100.608;2023-04-19T07:38:30;1003.30;;;34.37;50.04
37170;BME280;23062;13.952;100.608;2023-04-19T07:42:56;1003.26;;;34.36;50.05
37170;BME280;23062;13.952;100.608;2023-04-19T07:47:27;1003.08;;;34.36;50.36
37170;BME280;23062;13.952;100.608;2023-04-19T07:51:54;1003.03;;;34.42;50.15
37170;BME280;23062;13.952;100.608;2023-04-19T07:56:20;1002.94;;;34.42;49.85
37170;BME280;23062;13.952;100.608;2023-04-19T08:00:48;1002.89;;;34.47;49.57
37170;BME280;23062;13.952;100.608;2023-04-19T08:05:15;1002.79;;;34.49;49.38
37170;BME280;23062;13.952;100.608;2023-04-19T08:09:42;1002.74;;;34.50;49.46
37170;BME280;23062;13.952;100.608;2023-04-19T08:14:09;1002.65;;;34.48;49.67
37170;BME280;23062;13.952;100.608;2023-04-19T08:18:35;1002.55;;;34.46;49.99
37170;BME280;23062;13.952;100.608;2023-04-19T08:27:45;1002.34;;;34.48;49.56
37170;BME280;23062;13.952;100.608;2023-04-19T08:41:31;1002.09;;;34.60;51.32
37170;BME280;23062;13.952;100.608;2023-04-19T08:46:07;1002.01;;;34.63;52.23
37170;BME280;23062;13.952;100.608;2023-04-19T08:50:29;1002.02;;;34.64;52.60
37170;BME280;23062;13.952;100.608;2023-04-19T08:55:05;1002.00;;;34.66;52.93
37170;BME280;23062;13.952;100.608;2023-04-19T09:04:17;1001.90;;;34.69;53.63
37170;BME280;23062;13.952;100.608;2023-04-19T09:08:42;1001.78;;;34.80;53.23
37170;BME280;23062;13.952;100.608;2023-04-19T09:13:17;1001.79;;;34.84;53.10
37170;BME280;23062;13.952;100.608;2023-04-19T09:18:07;1001.68;;;34.85;53.03
37170;BME280;23062;13.952;100.608;2023-04-19T09:22:33;1001.62;;;34.82;53.11
37170;BME280;23062;13.952;100.608;2023-04-19T09:31:43;1001.66;;;34.76;53.34
37170;BME280;23062;13.952;100.608;2023-04-19T09:36:11;1001.72;;;34.80;53.24
37170;BME280;23062;13.952;100.608;2023-04-19T09:40:42;1001.63;;;34.66;53.98
37170;BME280;23062;13.952;100.608;2023-04-19T09:49:42;1001.68;;;34.62;53.88
37170;BME280;23062;13.952;100.608;2023-04-19T10:03:23;1001.64;;;34.58;54.42
37170;BME280;23062;13.952;100.608;2023-04-19T10:47:43;1001.79;;;34.50;51.68
37170;BME280;23062;13.952;100.608;2023-04-19T10:57:59;1001.94;;;34.46;51.00
37170;BME280;23062;13.952;100.608;2023-04-19T11:07:04;1002.09;;;34.47;50.24
37170;BME280;23062;13.952;100.608;2023-04-19T11:11:34;1002.10;;;34.46;49.96
37170;BME280;23062;13.952;100.608;2023-04-19T11:16:00;1002.12;;;34.41;49.80
37170;BME280;23062;13.952;100.608;2023-04-19T11:20:25;1002.24;;;34.38;49.66
37170;BME280;23062;13.952;100.608;2023-04-19T11:29:40;1002.30;;;34.36;50.25
37170;BME280;23062;13.952;100.608;2023-04-19T11:34:05;1002.40;;;34.32;50.12
37170;BME280;23062;13.952;100.608;2023-04-19T11:38:52;1002.46;;;34.30;50.18
37170;BME280;23062;13.952;100.608;2023-04-19T11:57:04;1002.55;;;34.20;51.07
37170;BME280;23062;13.952;100.608;2023-04-19T12:01:37;1002.62;;;34.19;51.51
37170;BME280;23062;13.952;100.608;2023-04-19T12:06:00;1002.65;;;34.18;51.80
37170;BME280;23062;13.952;100.608;2023-04-19T12:10:34;1002.72;;;34.17;51.98
37170;BME280;23062;13.952;100.608;2023-04-19T12:15:08;1002.75;;;34.18;52.29
37170;BME280;23062;13.952;100.608;2023-04-19T12:24:10;1002.84;;;34.16;52.94
37170;BME280;23062;13.952;100.608;2023-04-19T12:33:44;1003.01;;;34.17;53.40
37170;BME280;23062;13.952;100.608;2023-04-19T12:38:32;1003.06;;;34.17;53.73
37170;BME280;23062;13.952;100.608;2023-04-19T12:43:07;1003.14;;;34.16;54.19
37170;BME280;23062;13.952;100.608;2023-04-19T12:47:53;1003.25;;;34.14;54.51
37170;BME280;23062;13.952;100.608;2023-04-19T12:52:22;1003.31;;;34.16;54.70
37170;BME280;23062;13.952;100.608;2023-04-19T12:56:49;1003.47;;;34.13;54.87
37170;BME280;23062;13.952;100.608;2023-04-19T13:01:16;1003.55;;;34.13;54.88
37170;BME280;23062;13.952;100.608;2023-04-19T13:05:54;1003.56;;;34.14;54.92
37170;BME280;23062;13.952;100.608;2023-04-19T13:10:28;1003.61;;;34.15;55.26
37170;BME280;23062;13.952;100.608;2023-04-19T13:14:54;1003.62;;;34.13;55.42
37170;BME280;23062;13.952;100.608;2023-04-19T13:19:25;1003.75;;;34.13;55.66
37170;BME280;23062;13.952;100.608;2023-04-19T13:23:48;1003.82;;;34.13;55.88
37170;BME280;23062;13.952;100.608;2023-04-19T13:28:15;1003.78;;;34.13;56.11
37170;BME280;23062;13.952;100.608;2023-04-19T13:32:42;1003.87;;;34.13;56.29
37170;BME280;23062;13.952;100.608;2023-04-19T13:37:09;1003.94;;;34.12;56.56
37170;BME280;23062;13.952;100.608;2023-04-19T13:41:37;1004.01;;;34.13;57.00
37170;BME280;23062;13.952;100.608;2023-04-19T13:46:03;1004.06;;;34.14;57.35
37170;BME280;23062;13.952;100.608;2023-04-19T13:50:47;1004.14;;;34.14;57.67
37170;BME280;23062;13.952;100.608;2023-04-19T13:55:24;1004.20;;;34.21;57.57
37170;BME280;23062;13.952;100.608;2023-04-19T13:59:59;1004.29;;;34.37;57.23
37170;BME280;23062;13.952;100.608;2023-04-19T14:04:28;1004.38;;;34.42;57.05
37170;BME280;23062;13.952;100.608;2023-04-19T14:08:56;1004.41;;;34.44;56.99
37170;BME280;23062;13.952;100.608;2023-04-19T14:13:45;1004.43;;;34.43;56.85
37170;BME280;23062;13.952;100.608;2023-04-19T14:18:13;1004.49;;;34.43;56.63
37170;BME280;23062;13.952;100.608;2023-04-19T14:23:00;1004.64;;;34.45;56.59
37170;BME280;23062;13.952;100.608;2023-04-19T14:27:26;1004.67;;;34.43;56.62
37170;BME280;23062;13.952;100.608;2023-04-19T14:31:56;1004.78;;;34.41;56.78
37170;BME280;23062;13.952;100.608;2023-04-19T14:36:22;1004.88;;;34.40;56.84
37170;BME280;23062;13.952;100.608;2023-04-19T14:40:52;1004.94;;;34.39;56.82
37170;BME280;23062;13.952;100.608;2023-04-19T14:45:18;1005.00;;;34.39;56.88
37170;BME280;23062;13.952;100.608;2023-04-19T14:49:44;1005.04;;;34.37;56.77
37170;BME280;23062;13.952;100.608;2023-04-19T14:54:11;1005.08;;;34.35;56.93
37170;BME280;23062;13.952;100.608;2023-04-19T14:58:38;1005.17;;;34.34;57.07
37170;BME280;23062;13.952;100.608;2023-04-19T15:03:04;1005.21;;;34.36;57.01
37170;BME280;23062;13.952;100.608;2023-04-19T15:07:31;1005.19;;;34.33;57.10
37170;BME280;23062;13.952;100.608;2023-04-19T15:11:57;1005.20;;;34.33;57.37
37170;BME280;23062;13.952;100.608;2023-04-19T15:16:24;1005.23;;;34.33;57.50
37170;BME280;23062;13.952;100.608;2023-04-19T15:20:51;1005.20;;;34.31;57.74
37170;BME280;23062;13.952;100.608;2023-04-19T15:25:17;1005.23;;;34.31;57.93
37170;BME280;23062;13.952;100.608;2023-04-19T15:29:44;1005.25;;;34.32;58.14
37170;BME280;23062;13.952;100.608;2023-04-19T15:34:10;1005.29;;;34.30;58.26
37170;BME280;23062;13.952;100.608;2023-04-19T15:38:36;1005.30;;;34.28;58.53
37170;BME280;23062;13.952;100.608;2023-04-19T15:43:02;1005.36;;;34.27;58.54
37170;BME280;23062;13.952;100.608;2023-04-19T15:47:32;1005.36;;;34.28;58.50
37170;BME280;23062;13.952;100.608;2023-04-19T15:52:06;1005.42;;;34.27;58.60
37170;BME280;23062;13.952;100.608;2023-04-19T15:56:32;1005.45;;;34.23;58.73
37170;BME280;23062;13.952;100.608;2023-04-19T16:00:57;1005.51;;;34.25;58.88
37170;BME280;23062;13.952;100.608;2023-04-19T16:05:24;1005.58;;;34.24;58.79
37170;BME280;23062;13.952;100.608;2023-04-19T16:09:50;1005.64;;;34.24;58.70
37170;BME280;23062;13.952;100.608;2023-04-19T16:14:17;1005.52;;;34.23;58.62
37170;BME280;23062;13.952;100.608;2023-04-19T16:18:46;1005.47;;;34.23;58.70
37170;BME280;23062;13.952;100.608;2023-04-19T16:23:12;1005.48;;;34.23;58.61
37170;BME280;23062;13.952;100.608;2023-04-19T16:27:46;1005.47;;;34.21;58.61
37170;BME280;23062;13.952;100.608;2023-04-19T16:32:12;1005.30;;;34.19;58.65
37170;BME280;23062;13.952;100.608;2023-04-19T16:36:43;1005.28;;;34.19;58.68
37170;BME280;23062;13.952;100.608;2023-04-19T16:41:12;1005.18;;;34.19;58.66
37170;BME280;23062;13.952;100.608;2023-04-19T16:45:42;1005.14;;;34.17;58.74
37170;BME280;23062;13.952;100.608;2023-04-19T16:50:08;1005.08;;;34.16;58.87
37170;BME280;23062;13.952;100.608;2023-04-19T16:54:40;1004.99;;;34.15;58.83
37170;BME280;23062;13.952;100.608;2023-04-19T16:59:06;1004.96;;;34.13;58.93
37170;BME280;23062;13.952;100.608;2023-04-19T17:03:32;1004.96;;;34.14;58.83
37170;BME280;23062;13.952;100.608;2023-04-19T17:07:59;1004.89;;;34.13;58.85
37170;BME280;23062;13.952;100.608;2023-04-19T17:12:24;1004.82;;;34.14;58.88
37170;BME280;23062;13.952;100.608;2023-04-19T17:16:51;1004.74;;;34.12;58.79
37170;BME280;23062;13.952;100.608;2023-04-19T17:21:18;1004.75;;;34.11;58.79
37170;BME280;23062;13.952;100.608;2023-04-19T17:25:45;1004.70;;;34.10;58.87
37170;BME280;23062;13.952;100.608;2023-04-19T17:30:14;1004.62;;;34.09;58.82
37170;BME280;23062;13.952;100.608;2023-04-19T17:34:44;1004.60;;;34.08;58.92
37170;BME280;23062;13.952;100.608;2023-04-19T17:39:12;1004.55;;;34.07;59.02
37170;BME280;23062;13.952;100.608;2023-04-19T17:43:42;1004.52;;;34.07;59.08
37170;BME280;23062;13.952;100.608;2023-04-19T17:48:10;1004.49;;;34.05;59.07
37170;BME280;23062;13.952;100.608;2023-04-19T17:52:39;1004.46;;;34.05;59.17
37170;BME280;23062;13.952;100.608;2023-04-19T17:57:05;1004.44;;;34.05;59.30
37170;BME280;23062;13.952;100.608;2023-04-19T18:01:32;1004.46;;;34.03;59.29
37170;BME280;23062;13.952;100.608;2023-04-19T18:05:59;1004.41;;;34.04;59.28
37170;BME280;23062;13.952;100.608;2023-04-19T18:10:25;1004.36;;;34.03;59.35
37170;BME280;23062;13.952;100.608;2023-04-19T18:15:08;1004.36;;;34.03;59.31
37170;BME280;23062;13.952;100.608;2023-04-19T18:19:34;1004.37;;;34.03;59.34
37170;BME280;23062;13.952;100.608;2023-04-19T18:24:01;1004.33;;;34.01;59.33
37170;BME280;23062;13.952;100.608;2023-04-19T18:28:32;1004.27;;;34.01;59.45
37170;BME280;23062;13.952;100.608;2023-04-19T18:32:54;1004.25;;;34.00;59.29
37170;BME280;23062;13.952;100.608;2023-04-19T18:37:22;1004.30;;;34.00;59.16
37170;BME280;23062;13.952;100.608;2023-04-19T18:41:47;1004.23;;;33.98;59.21
37170;BME280;23062;13.952;100.608;2023-04-19T18:46:16;1004.19;;;33.97;59.00
37170;BME280;23062;13.952;100.608;2023-04-19T18:50:43;1004.09;;;33.97;58.76
37170;BME280;23062;13.952;100.608;2023-04-19T18:55:10;1004.06;;;33.95;58.64
37170;BME280;23062;13.952;100.608;2023-04-19T18:59:37;1004.06;;;33.93;58.59
37170;BME280;23062;13.952;100.608;2023-04-19T19:04:09;1004.02;;;33.93;58.22
37170;BME280;23062;13.952;100.608;2023-04-19T19:08:34;1003.98;;;33.91;58.26
37170;BME280;23062;13.952;100.608;2023-04-19T19:13:01;1004.02;;;33.90;58.09
37170;BME280;23062;13.952;100.608;2023-04-19T19:17:27;1004.02;;;33.90;58.05
37170;BME280;23062;13.952;100.608;2023-04-19T19:21:55;1004.02;;;33.88;58.08
37170;BME280;23062;13.952;100.608;2023-04-19T19:26:22;1003.96;;;33.86;57.97
37170;BME280;23062;13.952;100.608;2023-04-19T19:30:59;1003.95;;;33.86;57.94
37170;BME280;23062;13.952;100.608;2023-04-19T19:35:30;1003.95;;;33.85;57.88
37170;BME280;23062;13.952;100.608;2023-04-19T19:39:57;1003.89;;;33.83;57.90
37170;BME280;23062;13.952;100.608;2023-04-19T19:44:30;1003.87;;;33.82;57.81
37170;BME280;23062;13.952;100.608;2023-04-19T19:48:59;1003.83;;;33.81;57.88
37170;BME280;23062;13.952;100.608;2023-04-19T19:53:31;1003.74;;;33.82;57.73
37170;BME280;23062;13.952;100.608;2023-04-19T19:58:03;1003.62;;;33.82;57.79
37170;BME280;23062;13.952;100.608;2023-04-19T20:02:32;1003.61;;;33.81;57.70
37170;BME280;23062;13.952;100.608;2023-04-19T20:11:30;1003.64;;;33.80;57.82
37170;BME280;23062;13.952;100.608;2023-04-19T20:16:04;1003.68;;;33.77;57.93
37170;BME280;23062;13.952;100.608;2023-04-19T20:20:31;1003.67;;;33.80;58.01
37170;BME280;23062;13.952;100.608;2023-04-19T20:34:07;1003.79;;;33.47;58.99
37170;BME280;23062;13.952;100.608;2023-04-19T20:38:41;1003.82;;;33.36;59.63
37170;BME280;23062;13.952;100.608;2023-04-19T20:43:12;1003.78;;;33.30;59.84
37170;BME280;23062;13.952;100.608;2023-04-19T20:47:43;1003.77;;;33.30;59.93
37170;BME280;23062;13.952;100.608;2023-04-19T20:56:44;1003.80;;;33.28;59.92
37170;BME280;23062;13.952;100.608;2023-04-19T21:01:13;1003.82;;;33.25;60.28
37170;BME280;23062;13.952;100.608;2023-04-19T21:05:48;1003.89;;;33.23;60.68
37170;BME280;23062;13.952;100.608;2023-04-19T21:10:17;1003.90;;;33.24;61.07
37170;BME280;23062;13.952;100.608;2023-04-19T21:14:50;1003.93;;;33.19;61.67
37170;BME280;23062;13.952;100.608;2023-04-19T21:19:24;1003.93;;;33.15;61.62
37170;BME280;23062;13.952;100.608;2023-04-19T21:23:47;1003.90;;;33.15;61.79
37170;BME280;23062;13.952;100.608;2023-04-19T21:28:14;1003.98;;;33.10;61.83
37170;BME280;23062;13.952;100.608;2023-04-19T21:32:45;1004.07;;;33.12;62.06
37170;BME280;23062;13.952;100.608;2023-04-19T21:37:12;1004.10;;;33.08;62.32
37170;BME280;23062;13.952;100.608;2023-04-19T21:41:50;1004.08;;;33.04;62.74
37170;BME280;23062;13.952;100.608;2023-04-19T21:46:24;1004.15;;;33.03;62.94
37170;BME280;23062;13.952;100.608;2023-04-19T21:50:52;1004.24;;;33.06;62.75
37170;BME280;23062;13.952;100.608;2023-04-19T21:55:23;1004.27;;;33.09;62.61
37170;BME280;23062;13.952;100.608;2023-04-19T22:05:05;1004.37;;;33.07;62.90
37170;BME280;23062;13.952;100.608;2023-04-19T22:09:27;1004.40;;;33.04;62.99
37170;BME280;23062;13.952;100.608;2023-04-19T22:13:54;1004.40;;;33.04;63.15
37170;BME280;23062;13.952;100.608;2023-04-19T22:18:20;1004.44;;;33.02;63.38
37170;BME280;23062;13.952;100.608;2023-04-19T22:22:48;1004.50;;;33.09;63.23
37170;BME280;23062;13.952;100.608;2023-04-19T22:27:20;1004.54;;;33.07;63.51
37170;BME280;23062;13.952;100.608;2023-04-19T22:31:44;1004.59;;;33.09;63.25
37170;BME280;23062;13.952;100.608;2023-04-19T22:36:09;1004.61;;;33.09;63.32
37170;BME280;23062;13.952;100.608;2023-04-19T22:40:35;1004.65;;;33.08;63.10
37170;BME280;23062;13.952;100.608;2023-04-19T22:45:00;1004.65;;;33.04;62.94
37170;BME280;23062;13.952;100.608;2023-04-19T22:49:25;1004.73;;;33.02;62.93
37170;BME280;23062;13.952;100.608;2023-04-19T22:53:54;1004.82;;;33.06;62.85
37170;BME280;23062;13.952;100.608;2023-04-19T22:58:26;1004.85;;;33.09;62.44
37170;BME280;23062;13.952;100.608;2023-04-19T23:02:51;1004.88;;;33.12;61.64
37170;BME280;23062;13.952;100.608;2023-04-19T23:07:18;1004.95;;;33.12;60.92
37170;BME280;23062;13.952;100.608;2023-04-19T23:11:44;1005.05;;;33.09;60.23
37170;BME280;23062;13.952;100.608;2023-04-19T23:16:14;1005.13;;;33.03;59.22
37170;BME280;23062;13.952;100.608;2023-04-19T23:20:41;1005.16;;;33.00;58.75
37170;BME280;23062;13.952;100.608;2023-04-19T23:25:07;1005.17;;;32.93;58.39
37170;BME280;23062;13.952;100.608;2023-04-19T23:29:33;1005.22;;;32.90;57.59
37170;BME280;23062;13.952;100.608;2023-04-19T23:33:58;1005.28;;;32.85;56.90
37170;BME280;23062;13.952;100.608;2023-04-19T23:38:23;1005.32;;;32.81;56.25
37170;BME280;23062;13.952;100.608;2023-04-19T23:42:49;1005.34;;;32.78;55.66
37170;BME280;23062;13.952;100.608;2023-04-19T23:47:14;1005.45;;;32.77;55.47
37170;BME280;23062;13.952;100.608;2023-04-19T23:51:41;1005.55;;;32.75;55.85
37170;BME280;23062;13.952;100.608;2023-04-19T23:56:07;1005.67;;;32.75;55.93
